createdAt,value
2019-02-25T00:01:55.305Z,82.00
2019-02-25T00:04:21.476Z,82.00
2019-02-25T00:06:49.209Z,82.00
2019-02-25T00:09:15.436Z,82.50
2019-02-25T00:11:42.996Z,83.00
2019-02-25T00:14:09.182Z,83.10
2019-02-25T00:16:35.393Z,83.40
2019-02-25T00:19:01.558Z,83.40
2019-02-25T00:21:42.739Z,83.80
2019-02-25T00:24:09.905Z,84.00
2019-02-25T00:26:36.085Z,84.30
2019-02-25T00:29:02.255Z,84.50
2019-02-25T00:31:28.504Z,84.30
2019-02-25T00:33:54.758Z,84.50
2019-02-25T00:36:20.960Z,84.90
2019-02-25T00:38:47.137Z,85.10
2019-02-25T00:41:13.404Z,84.90
2019-02-25T00:43:39.556Z,85.20
2019-02-25T00:46:05.762Z,85.70
2019-02-25T00:48:31.919Z,85.60
2019-02-25T00:50:58.129Z,85.40
2019-02-25T00:53:24.301Z,85.20
2019-02-25T00:55:50.477Z,85.80
2019-02-25T00:58:16.679Z,85.90
2019-02-25T01:00:42.838Z,85.60
2019-02-25T01:03:09.013Z,84.80
2019-02-25T01:05:35.200Z,84.50
2019-02-25T01:08:01.403Z,84.30
2019-02-25T01:10:27.560Z,84.70
2019-02-25T01:12:53.784Z,85.30
2019-02-25T01:15:20.218Z,85.20
2019-02-25T01:17:46.421Z,84.90
2019-02-25T01:20:13.891Z,84.40
2019-02-25T01:22:40.266Z,83.40
2019-02-25T01:25:09.552Z,82.60
2019-02-25T01:27:35.764Z,82.50
2019-02-25T01:30:04.606Z,82.10
2019-02-25T01:32:32.099Z,82.00
2019-02-25T01:34:58.264Z,82.00
2019-02-25T01:37:24.458Z,82.30
2019-02-25T01:39:50.689Z,82.10
2019-02-25T01:42:16.860Z,81.80
2019-02-25T01:44:43.138Z,82.00
2019-02-25T01:47:09.337Z,82.80
2019-02-25T01:49:35.556Z,83.00
2019-02-25T01:52:02.877Z,83.40
2019-02-25T01:54:29.078Z,83.30
2019-02-25T01:56:55.248Z,83.00
2019-02-25T01:59:21.717Z,82.50
2019-02-25T02:01:47.880Z,82.10
2019-02-25T02:04:14.092Z,81.90
2019-02-25T02:06:40.288Z,81.60
2019-02-25T02:09:07.815Z,81.70
2019-02-25T02:11:35.423Z,81.90
2019-02-25T02:14:01.641Z,82.20
2019-02-25T02:16:27.858Z,81.90
2019-02-25T02:18:54.022Z,81.90
2019-02-25T02:21:20.208Z,82.90
2019-02-25T02:23:46.424Z,83.70
2019-02-25T02:26:12.619Z,82.90
2019-02-25T02:28:38.785Z,82.50
2019-02-25T02:31:05.003Z,82.00
2019-02-25T02:33:31.317Z,82.30
2019-02-25T02:35:57.509Z,82.30
2019-02-25T02:38:23.923Z,82.00
2019-02-25T02:40:51.124Z,81.90
2019-02-25T02:43:17.368Z,81.90
2019-02-25T02:45:53.590Z,81.60
2019-02-25T02:48:29.667Z,81.70
2019-02-25T02:50:55.984Z,81.60
2019-02-25T02:53:22.149Z,81.70
2019-02-25T02:55:48.377Z,81.60
2019-02-25T02:58:14.530Z,82.20
2019-02-25T03:00:40.723Z,82.10
2019-02-25T03:03:06.888Z,82.20
2019-02-25T03:05:33.118Z,82.70
2019-02-25T03:07:59.551Z,82.80
2019-02-25T03:10:25.713Z,83.00
2019-02-25T03:12:52.021Z,83.70
2019-02-25T03:15:19.788Z,83.90
2019-02-25T03:17:46.007Z,84.50
2019-02-25T03:20:12.523Z,84.60
2019-02-25T03:22:38.679Z,84.70
2019-02-25T03:25:07.272Z,85.10
2019-02-25T03:27:33.466Z,85.20
2019-02-25T03:29:59.700Z,84.90
2019-02-25T03:32:25.893Z,84.50
2019-02-25T03:34:52.080Z,83.40
2019-02-25T03:37:18.236Z,83.80
2019-02-25T03:39:44.464Z,83.30
2019-02-25T03:42:10.724Z,83.80
2019-02-25T03:44:36.884Z,84.10
2019-02-25T03:47:03.072Z,84.10
2019-02-25T03:49:29.233Z,84.40
2019-02-25T03:51:55.737Z,84.10
2019-02-25T03:54:21.931Z,84.90
2019-02-25T03:56:48.114Z,84.50
2019-02-25T03:59:14.315Z,84.60
2019-02-25T04:01:40.500Z,85.10
2019-02-25T04:04:06.677Z,85.10
2019-02-25T04:06:32.855Z,84.70
2019-02-25T04:08:59.021Z,85.10
2019-02-25T04:11:25.260Z,85.10
2019-02-25T04:13:51.423Z,85.50
2019-02-25T04:16:17.616Z,85.90
2019-02-25T04:18:43.776Z,85.90
2019-02-25T04:21:09.960Z,85.50
2019-02-25T04:23:36.383Z,85.70
2019-02-25T04:26:02.600Z,85.60
2019-02-25T04:28:28.770Z,85.80
2019-02-25T04:30:54.976Z,85.50
2019-02-25T04:33:21.174Z,85.30
2019-02-25T04:35:47.367Z,85.80
2019-02-25T04:38:13.572Z,86.10
2019-02-25T04:40:39.872Z,87.50
2019-02-25T04:43:06.069Z,87.70
2019-02-25T04:45:32.238Z,87.00
2019-02-25T04:47:58.416Z,86.70
2019-02-25T04:50:24.717Z,86.40
2019-02-25T04:52:51.675Z,86.30
2019-02-25T04:55:17.862Z,86.20
2019-02-25T04:57:44.073Z,85.80
2019-02-25T05:00:15.885Z,86.00
2019-02-25T05:02:42.077Z,86.00
2019-02-25T05:05:09.254Z,86.00
2019-02-25T05:07:35.457Z,85.80
2019-02-25T05:10:02.769Z,85.40
2019-02-25T05:12:28.935Z,85.60
2019-02-25T05:14:55.113Z,86.30
2019-02-25T05:17:21.285Z,86.30
2019-02-25T05:19:47.456Z,86.30
2019-02-25T05:22:13.628Z,86.90
2019-02-25T05:24:39.821Z,86.70
2019-02-25T05:27:05.994Z,86.60
2019-02-25T05:29:32.179Z,86.60
2019-02-25T05:31:58.393Z,86.50
2019-02-25T05:34:24.577Z,86.80
2019-02-25T05:36:51.923Z,86.80
2019-02-25T05:39:18.116Z,86.90
2019-02-25T05:41:44.350Z,86.90
2019-02-25T05:44:10.568Z,87.10
2019-02-25T05:46:36.838Z,87.40
2019-02-25T05:49:03.000Z,87.60
2019-02-25T05:51:31.198Z,88.60
2019-02-25T05:53:57.352Z,88.20
2019-02-25T05:56:23.504Z,88.60
2019-02-25T05:58:49.797Z,88.10
2019-02-25T06:01:15.973Z,87.70
2019-02-25T06:03:42.172Z,86.30
2019-02-25T06:06:08.321Z,85.90
2019-02-25T06:08:34.537Z,86.20
2019-02-25T06:11:00.716Z,86.70
2019-02-25T06:13:26.916Z,87.60
2019-02-25T06:15:53.115Z,87.30
2019-02-25T06:18:19.292Z,86.60
2019-02-25T06:20:45.460Z,86.10
2019-02-25T06:23:11.907Z,85.40
2019-02-25T06:25:38.205Z,85.10
2019-02-25T06:28:04.630Z,85.20
2019-02-25T06:30:30.812Z,85.10
2019-02-25T06:32:56.984Z,85.10
2019-02-25T06:35:23.180Z,84.90
2019-02-25T06:37:49.349Z,85.00
2019-02-25T06:40:16.538Z,85.00
2019-02-25T06:42:42.758Z,83.70
2019-02-25T06:45:12.065Z,83.70
2019-02-25T06:47:38.221Z,83.80
2019-02-25T06:50:07.246Z,83.40
2019-02-25T06:52:33.508Z,83.30
2019-02-25T06:55:04.439Z,82.60
2019-02-25T06:57:30.803Z,81.80
2019-02-25T06:59:57.109Z,81.10
2019-02-25T07:02:23.281Z,80.80
2019-02-25T07:04:51.357Z,80.50
2019-02-25T07:07:19.444Z,80.40
2019-02-25T07:09:56.594Z,80.00
2019-02-25T07:12:25.705Z,79.10
2019-02-25T07:15:05.924Z,79.20
2019-02-25T07:17:40.289Z,78.20
2019-02-25T07:20:08.357Z,77.70
2019-02-25T07:22:39.268Z,76.60
2019-02-25T07:25:08.378Z,75.40
2019-02-25T07:27:53.281Z,74.80
2019-02-25T07:30:27.369Z,74.30
2019-02-25T07:33:13.613Z,73.50
2019-02-25T07:35:53.764Z,72.90
2019-02-25T07:38:39.764Z,72.10
2019-02-25T07:41:08.252Z,70.90
2019-02-25T07:43:36.369Z,68.80
2019-02-25T07:46:04.486Z,66.90
2019-02-25T07:48:49.315Z,65.00
2019-02-25T07:51:20.163Z,64.30
2019-02-25T07:56:32.037Z,57.20
2019-02-25T07:59:03.065Z,51.70
2019-02-25T08:01:31.131Z,48.40
2019-02-25T08:04:17.503Z,43.60
2019-02-25T08:06:51.468Z,41.30
2019-02-25T08:09:31.453Z,40.10
2019-02-25T08:12:05.481Z,38.60
2019-02-25T08:14:39.646Z,36.40
2019-02-25T08:17:07.748Z,33.70
2019-02-25T08:19:50.961Z,35.00
2019-02-25T08:22:22.936Z,32.30
2019-02-25T08:24:57.291Z,31.80
2019-02-25T08:30:22.628Z,29.70
2019-02-25T08:32:53.928Z,29.20
2019-02-25T08:35:31.976Z,27.70
2019-02-25T08:38:09.608Z,27.10
2019-02-25T08:40:59.276Z,26.50
2019-02-25T08:43:28.408Z,26.30
2019-02-25T08:45:59.511Z,26.70
2019-02-25T08:48:27.613Z,27.60
2019-02-25T08:50:53.838Z,27.30
2019-02-25T08:53:20.101Z,28.10
2019-02-25T08:55:46.309Z,27.30
2019-02-25T08:58:12.488Z,27.10
2019-02-25T09:00:38.651Z,26.40
2019-02-25T09:03:06.561Z,25.50
2019-02-25T09:05:32.725Z,25.90
2019-02-25T09:07:58.911Z,27.20
2019-02-25T09:10:25.110Z,27.40
2019-02-25T09:12:51.306Z,28.70
2019-02-25T09:15:17.522Z,28.00
2019-02-25T09:17:44.014Z,27.20
2019-02-25T09:20:11.417Z,27.30
2019-02-25T09:22:37.900Z,29.40
2019-02-25T09:25:07.317Z,30.30
2019-02-25T09:27:33.508Z,30.70
2019-02-25T09:29:59.687Z,29.00
2019-02-25T09:32:25.865Z,27.00
2019-02-25T09:34:52.054Z,25.60
2019-02-25T09:37:18.219Z,26.50
2019-02-25T09:39:44.388Z,26.10
2019-02-25T09:42:12.510Z,26.10
2019-02-25T09:44:38.746Z,24.10
2019-02-25T09:47:05.257Z,24.60
2019-02-25T09:49:31.497Z,27.00
2019-02-25T09:51:57.664Z,25.60
2019-02-25T09:54:23.855Z,24.90
2019-02-25T09:56:50.031Z,24.40
2019-02-25T09:59:16.298Z,24.50
2019-02-25T10:01:42.554Z,24.90
2019-02-25T10:04:09.842Z,23.60
2019-02-25T10:06:36.033Z,22.60
2019-02-25T10:09:03.503Z,22.40
2019-02-25T10:11:31.509Z,23.30
2019-02-25T10:13:57.867Z,23.10
2019-02-25T10:16:24.427Z,23.70
2019-02-25T10:18:50.586Z,24.50
2019-02-25T10:21:17.892Z,24.50
2019-02-25T10:23:44.379Z,25.20
2019-02-25T10:26:10.588Z,24.10
2019-02-25T10:28:37.793Z,25.50
2019-02-25T10:31:04.058Z,27.20
2019-02-25T10:33:30.232Z,26.40
2019-02-25T10:35:56.410Z,25.00
2019-02-25T10:38:22.609Z,25.90
2019-02-25T10:40:49.590Z,25.50
2019-02-25T10:43:17.033Z,25.70
2019-02-25T10:45:45.005Z,27.00
2019-02-25T10:48:11.671Z,27.00
2019-02-25T10:50:38.679Z,25.00
2019-02-25T10:53:07.523Z,24.80
2019-02-25T10:55:55.805Z,25.20
2019-02-25T10:58:22.080Z,26.80
2019-02-25T11:00:49.376Z,28.10
2019-02-25T11:03:17.402Z,29.20
2019-02-25T11:05:43.673Z,30.80
2019-02-25T11:08:13.731Z,29.60
2019-02-25T11:10:41.866Z,29.80
2019-02-25T11:13:08.054Z,29.50
2019-02-25T11:15:36.903Z,31.10
2019-02-25T11:18:05.344Z,29.40
2019-02-25T11:20:33.151Z,29.40
2019-02-25T11:22:59.671Z,29.40
2019-02-25T11:25:27.909Z,29.90
2019-02-25T11:27:54.133Z,31.10
2019-02-25T11:30:21.521Z,30.90
2019-02-25T11:32:49.131Z,31.60
2019-02-25T11:35:16.516Z,32.80
2019-02-25T11:37:42.708Z,34.00
2019-02-25T11:40:14.188Z,34.80
2019-02-25T11:42:40.378Z,35.10
2019-02-25T11:45:10.048Z,35.00
2019-02-25T11:47:36.452Z,34.10
2019-02-25T11:50:05.220Z,35.50
2019-02-25T11:52:31.388Z,37.10
2019-02-25T11:54:57.577Z,37.10
2019-02-25T11:57:23.745Z,38.50
2019-02-25T11:59:49.989Z,37.70
2019-02-25T12:02:25.000Z,37.10
2019-02-25T12:04:44.500Z,36.90
2019-02-25T12:07:10.793Z,38.80
2019-02-25T12:09:36.972Z,39.20
2019-02-25T12:12:03.139Z,40.30
2019-02-25T12:14:29.323Z,42.90
2019-02-25T12:16:55.489Z,45.50
2019-02-25T12:19:21.663Z,45.20
2019-02-25T12:21:47.881Z,47.20
2019-02-25T12:24:14.052Z,46.60
2019-02-25T12:26:40.249Z,48.40
2019-02-25T12:29:10.799Z,47.90
2019-02-25T12:31:34.511Z,48.20
2019-02-25T12:34:00.809Z,49.90
2019-02-25T12:36:27.010Z,49.00
2019-02-25T12:38:53.163Z,49.20
2019-02-25T12:41:19.337Z,49.30
2019-02-25T12:43:45.547Z,49.00
2019-02-25T12:46:11.715Z,49.40
2019-02-25T12:48:37.905Z,49.60
2019-02-25T12:51:04.113Z,48.70
2019-02-25T12:53:30.301Z,48.70
2019-02-25T12:55:56.493Z,49.60
2019-02-25T12:58:22.737Z,49.60
2019-02-25T13:00:48.957Z,49.00
2019-02-25T13:03:15.136Z,48.50
2019-02-25T13:05:41.324Z,48.60
2019-02-25T13:08:07.500Z,48.20
2019-02-25T13:10:33.710Z,49.70
2019-02-25T13:12:59.876Z,49.80
2019-02-25T13:15:26.082Z,49.70
2019-02-25T13:17:52.372Z,49.40
2019-02-25T13:20:18.539Z,49.80
2019-02-25T13:22:44.734Z,49.90
2019-02-25T13:25:20.666Z,50.00
2019-02-25T13:27:46.984Z,49.60
2019-02-25T13:30:16.563Z,50.60
2019-02-25T13:32:43.856Z,49.90
2019-02-25T13:35:14.032Z,50.10
2019-02-25T13:37:40.310Z,50.40
2019-02-25T13:40:08.694Z,50.50
2019-02-25T13:42:34.880Z,50.30
2019-02-25T13:45:01.089Z,50.30
2019-02-25T13:47:27.945Z,51.40
2019-02-25T13:49:55.522Z,51.70
2019-02-25T13:52:21.905Z,51.50
2019-02-25T13:54:48.177Z,51.10
2019-02-25T13:57:14.448Z,50.90
2019-02-25T13:59:43.389Z,51.20
2019-02-25T14:02:09.797Z,52.50
2019-02-25T14:04:36.026Z,51.70
2019-02-25T14:07:02.316Z,51.70
2019-02-25T14:09:28.593Z,52.60
2019-02-25T14:11:54.993Z,52.80
2019-02-25T14:14:21.149Z,53.20
2019-02-25T14:16:47.329Z,52.60
2019-02-25T14:19:13.700Z,52.40
2019-02-25T14:21:39.891Z,52.50
2019-02-25T14:24:06.335Z,53.10
2019-02-25T14:26:32.598Z,53.10
2019-02-25T14:28:58.792Z,53.30
2019-02-25T14:31:27.322Z,52.60
2019-02-25T14:33:53.065Z,52.00
2019-02-25T14:36:19.884Z,51.70
2019-02-25T14:38:46.203Z,51.50
2019-02-25T14:41:13.738Z,51.30
2019-02-25T14:43:46.228Z,51.30
2019-02-25T14:46:11.891Z,53.00
2019-02-25T14:48:36.698Z,51.90
2019-02-25T14:51:02.892Z,51.80
2019-02-25T14:53:29.693Z,52.60
2019-02-25T14:55:58.413Z,53.00
2019-02-25T14:58:25.292Z,53.00
2019-02-25T15:00:51.564Z,51.90
2019-02-25T15:03:18.190Z,52.60
2019-02-25T15:05:47.607Z,53.00
2019-02-25T15:08:14.052Z,53.20
2019-02-25T15:10:40.694Z,53.70
2019-02-25T15:13:08.887Z,53.70
2019-02-25T15:15:37.484Z,53.50
2019-02-25T15:18:04.800Z,53.70
2019-02-25T15:20:31.420Z,53.70
2019-02-25T15:22:57.992Z,52.80
2019-02-25T15:25:24.299Z,53.10
2019-02-25T15:27:50.566Z,53.00
2019-02-25T15:30:25.096Z,53.20
2019-02-25T15:32:55.697Z,53.50
2019-02-25T15:35:19.215Z,53.90
2019-02-25T15:37:46.693Z,53.60
2019-02-25T15:40:18.014Z,53.60
2019-02-25T15:42:43.152Z,53.80
2019-02-25T15:45:15.536Z,54.20
2019-02-25T15:47:42.493Z,54.50
2019-02-25T15:50:10.601Z,54.60
2019-02-25T15:52:40.198Z,54.70
2019-02-25T15:55:14.992Z,54.70
2019-02-25T15:57:40.168Z,55.00
2019-02-25T16:00:11.631Z,54.80
2019-02-25T16:02:39.665Z,55.40
2019-02-25T16:05:09.960Z,55.70
2019-02-25T16:07:38.067Z,55.90
2019-02-25T16:10:12.011Z,56.30
2019-02-25T16:12:39.189Z,56.20
2019-02-25T16:15:15.737Z,56.50
2019-02-25T16:17:44.436Z,56.60
2019-02-25T16:20:12.693Z,56.70
2019-02-25T16:22:40.700Z,56.90
2019-02-25T16:25:11.552Z,57.30
2019-02-25T16:27:38.004Z,57.40
2019-02-25T16:30:07.948Z,57.70
2019-02-25T16:32:34.691Z,57.90
2019-02-25T16:35:02.697Z,58.20
2019-02-25T16:37:31.217Z,58.40
2019-02-25T16:40:00.562Z,58.50
2019-02-25T16:42:26.295Z,58.90
2019-02-25T16:44:55.694Z,59.20
2019-02-25T16:47:31.930Z,60.50
2019-02-25T16:49:51.943Z,60.20
2019-02-25T16:52:20.083Z,60.40
2019-02-25T16:54:46.556Z,60.60
2019-02-25T16:57:14.258Z,61.10
2019-02-25T16:59:41.012Z,61.50
2019-02-25T17:02:11.917Z,61.50
2019-02-25T17:04:36.764Z,61.90
2019-02-25T17:07:03.072Z,62.40
2019-02-25T17:09:29.654Z,62.80
2019-02-25T17:11:55.946Z,63.00
2019-02-25T17:14:23.957Z,63.50
2019-02-25T17:16:50.354Z,64.00
2019-02-25T17:19:16.945Z,64.00
2019-02-25T17:21:43.678Z,64.30
2019-02-25T17:24:10.037Z,64.70
2019-02-25T17:26:36.410Z,64.80
2019-02-25T17:29:02.782Z,65.00
2019-02-25T17:31:30.562Z,65.50
2019-02-25T17:33:57.935Z,65.60
2019-02-25T17:36:24.168Z,66.00
2019-02-25T17:38:51.999Z,66.40
2019-02-25T17:41:18.426Z,66.50
2019-02-25T17:43:45.125Z,66.60
2019-02-25T17:46:11.660Z,66.60
2019-02-25T17:48:39.073Z,67.10
2019-02-25T17:51:05.350Z,67.10
2019-02-25T17:53:32.775Z,67.10
2019-02-25T17:55:59.884Z,66.50
2019-02-25T17:58:26.220Z,67.20
2019-02-25T18:00:54.149Z,67.90
2019-02-25T18:03:22.109Z,68.00
2019-02-25T18:05:49.520Z,69.20
2019-02-25T18:08:15.750Z,69.80
2019-02-25T18:10:43.102Z,70.00
2019-02-25T18:13:10.888Z,69.80
2019-02-25T18:15:37.468Z,70.80
2019-02-25T18:18:07.139Z,72.00
2019-02-25T18:20:31.858Z,71.40
2019-02-25T18:22:58.478Z,72.20
2019-02-25T18:25:24.646Z,73.20
2019-02-25T18:27:51.976Z,73.50
2019-02-25T18:30:25.679Z,73.90
2019-02-25T18:32:52.652Z,73.10
2019-02-25T18:35:21.144Z,73.60
2019-02-25T18:37:47.828Z,73.20
2019-02-25T18:40:16.372Z,74.00
2019-02-25T18:42:43.857Z,74.40
2019-02-25T18:45:16.013Z,74.20
2019-02-25T18:47:42.888Z,74.50
2019-02-25T18:50:15.162Z,75.30
2019-02-25T18:52:40.760Z,76.60
2019-02-25T18:55:11.152Z,78.30
2019-02-25T18:57:37.542Z,78.40
2019-02-25T19:00:07.566Z,76.60
2019-02-25T19:02:36.459Z,76.20
2019-02-25T19:05:06.623Z,77.90
2019-02-25T19:07:33.662Z,79.20
2019-02-25T19:10:00.023Z,79.90
2019-02-25T19:12:26.363Z,78.60
2019-02-25T19:14:55.169Z,78.90
2019-02-25T19:17:21.555Z,78.50
2019-02-25T19:19:51.541Z,78.40
2019-02-25T19:22:17.910Z,79.30
2019-02-25T19:24:46.651Z,80.00
2019-02-25T19:27:13.364Z,80.40
2019-02-25T19:29:39.564Z,80.30
2019-02-25T19:32:05.926Z,81.70
2019-02-25T19:34:32.296Z,83.30
2019-02-25T19:37:02.227Z,85.80
2019-02-25T19:39:27.109Z,86.10
2019-02-25T19:41:53.778Z,85.00
2019-02-25T19:44:21.235Z,83.10
2019-02-25T19:46:48.699Z,81.70
2019-02-25T19:49:18.119Z,85.00
2019-02-25T19:51:46.103Z,87.20
2019-02-25T19:54:13.862Z,87.50
2019-02-25T19:56:40.393Z,87.20
2019-02-25T19:59:07.970Z,87.20
2019-02-25T20:01:34.872Z,87.20
2019-02-25T20:04:04.351Z,87.10
2019-02-25T20:06:29.381Z,87.50
2019-02-25T20:08:56.423Z,87.80
2019-02-25T20:11:25.868Z,87.80
2019-02-25T20:13:52.020Z,86.50
2019-02-25T20:16:20.488Z,87.10
2019-02-25T20:18:46.433Z,87.10
2019-02-25T20:21:20.163Z,87.00
2019-02-25T20:23:49.673Z,87.60
2019-02-25T20:26:17.733Z,87.50
2019-02-25T20:28:46.241Z,87.50
2019-02-25T20:31:14.357Z,87.40
2019-02-25T20:33:40.844Z,86.20
2019-02-25T20:36:07.076Z,86.60
2019-02-25T20:38:34.700Z,87.40
2019-02-25T20:41:02.567Z,88.50
2019-02-25T20:43:30.822Z,88.80
2019-02-25T20:45:59.351Z,88.10
2019-02-25T20:48:27.262Z,87.50
2019-02-25T20:50:53.273Z,88.00
2019-02-25T20:53:19.472Z,88.00
2019-02-25T20:55:48.105Z,88.20
2019-02-25T20:58:16.263Z,88.60
2019-02-25T21:00:44.107Z,88.70
2019-02-25T21:03:13.977Z,89.00
2019-02-25T21:05:38.744Z,88.90
2019-02-25T21:08:04.937Z,88.50
2019-02-25T21:10:34.969Z,87.90
2019-02-25T21:13:01.871Z,88.90
2019-02-25T21:15:27.473Z,89.20
2019-02-25T21:17:54.979Z,88.80
2019-02-25T21:20:23.559Z,87.70
2019-02-25T21:22:52.885Z,88.10
2019-02-25T21:25:22.042Z,87.70
2019-02-25T21:27:47.476Z,88.30
2019-02-25T21:30:15.092Z,88.20
2019-02-25T21:32:43.258Z,89.00
2019-02-25T21:35:14.445Z,88.60
2019-02-25T21:37:43.392Z,88.00
2019-02-25T21:40:15.320Z,88.50
2019-02-25T21:42:43.760Z,88.70
2019-02-25T21:45:11.792Z,89.00
2019-02-25T21:47:38.500Z,88.50
2019-02-25T21:50:09.505Z,88.20
2019-02-25T21:52:36.842Z,88.70
2019-02-25T21:55:08.957Z,88.80
2019-02-25T21:57:35.886Z,89.00
2019-02-25T22:00:15.141Z,90.60
2019-02-25T22:02:43.522Z,90.00
2019-02-25T22:05:11.857Z,89.60
2019-02-25T22:07:40.310Z,90.60
2019-02-25T22:10:09.108Z,90.00
2019-02-25T22:12:37.598Z,89.70
2019-02-25T22:15:06.488Z,90.10
2019-02-25T22:17:32.935Z,90.80
2019-02-25T22:19:59.100Z,91.90
2019-02-25T22:22:26.958Z,91.70
2019-02-25T22:24:53.522Z,91.20
2019-02-25T22:27:21.172Z,91.60
2019-02-25T22:29:47.852Z,91.70
2019-02-25T22:32:14.071Z,91.60
2019-02-25T22:34:40.256Z,91.50
2019-02-25T22:37:07.973Z,91.30
2019-02-25T22:39:36.439Z,90.70
2019-02-25T22:42:03.572Z,90.40
2019-02-25T22:44:31.778Z,90.90
2019-02-25T22:46:58.823Z,90.50
2019-02-25T22:49:26.655Z,90.90
2019-02-25T22:51:55.769Z,91.10
2019-02-25T22:54:21.638Z,90.10
2019-02-25T22:56:47.904Z,90.10
2019-02-25T22:59:14.093Z,91.00
2019-02-25T23:01:40.385Z,91.60
2019-02-25T23:04:06.624Z,91.50
2019-02-25T23:06:34.322Z,90.30
2019-02-25T23:09:00.530Z,90.60
2019-02-25T23:11:26.728Z,90.70
2019-02-25T23:13:54.773Z,90.10
2019-02-25T23:16:24.874Z,89.60
2019-02-25T23:18:49.096Z,90.30
2019-02-25T23:21:23.483Z,91.40
2019-02-25T23:23:45.265Z,91.40
2019-02-25T23:26:12.606Z,91.80
2019-02-25T23:28:39.575Z,91.80
2019-02-25T23:31:05.735Z,92.20
2019-02-25T23:33:31.940Z,92.50
2019-02-25T23:35:59.255Z,91.60
2019-02-25T23:38:25.471Z,92.30
2019-02-25T23:40:51.620Z,92.00
2019-02-25T23:43:18.969Z,91.40
2019-02-25T23:45:46.403Z,90.70
2019-02-25T23:48:13.011Z,90.60
2019-02-25T23:50:39.212Z,90.70
2019-02-25T23:53:05.404Z,90.50
2019-02-25T23:55:33.474Z,90.90
2019-02-25T23:57:59.660Z,91.20
